createdAt,value
2018-04-17T00:02:14.797Z,3.70
2018-04-17T00:04:43.922Z,3.50
2018-04-17T00:07:13.036Z,3.50
2018-04-17T00:09:42.153Z,3.90
2018-04-17T00:12:11.597Z,3.60
2018-04-17T00:14:40.721Z,3.83
2018-04-17T00:17:09.837Z,3.78
2018-04-17T00:19:39.465Z,3.70
2018-04-17T00:22:08.574Z,3.37
2018-04-17T00:24:37.690Z,4.25
2018-04-17T00:27:07.475Z,2.95
2018-04-17T00:29:36.591Z,3.53
2018-04-17T00:32:05.705Z,4.72
2018-04-17T00:34:34.825Z,3.37
2018-04-17T00:37:03.945Z,4.12
2018-04-17T00:39:33.059Z,3.92
2018-04-17T00:42:02.541Z,4.18
2018-04-17T00:44:31.650Z,3.92
2018-04-17T00:47:00.769Z,5.00
2018-04-17T00:49:29.894Z,3.83
2018-04-17T00:51:59.009Z,3.85
2018-04-17T00:54:28.122Z,4.18
2018-04-17T00:56:57.525Z,3.75
2018-04-17T00:59:26.697Z,4.55
2018-04-17T01:01:55.817Z,4.47
2018-04-17T01:04:25.326Z,4.05
2018-04-17T01:06:54.444Z,4.15
2018-04-17T01:09:23.870Z,3.85
2018-04-17T01:11:53.260Z,4.50
2018-04-17T01:14:22.377Z,4.18
2018-04-17T01:16:51.509Z,4.25
2018-04-17T01:19:20.647Z,4.05
2018-04-17T01:21:49.765Z,4.93
2018-04-17T01:24:18.882Z,3.60
2018-04-17T01:26:48.005Z,5.03
2018-04-17T01:29:17.146Z,3.70
2018-04-17T01:31:46.266Z,3.92
2018-04-17T01:34:15.692Z,4.20
2018-04-17T01:36:44.801Z,4.43
2018-04-17T01:39:14.023Z,4.40
2018-04-17T01:41:43.503Z,4.35
2018-04-17T01:44:12.616Z,4.10
2018-04-17T01:46:41.734Z,4.40
2018-04-17T01:49:10.873Z,6.03
2018-04-17T01:51:39.985Z,4.30
2018-04-17T01:54:09.098Z,5.28
2018-04-17T01:56:38.500Z,4.65
2018-04-17T01:59:07.619Z,5.07
2018-04-17T02:01:36.752Z,4.90
2018-04-17T02:04:05.867Z,3.90
2018-04-17T02:06:35.094Z,6.05
2018-04-17T02:09:04.210Z,4.95
2018-04-17T02:11:33.417Z,5.18
2018-04-17T02:14:02.933Z,5.53
2018-04-17T02:16:32.086Z,4.18
2018-04-17T02:19:01.644Z,4.97
2018-04-17T02:21:30.756Z,4.95
2018-04-17T02:23:59.881Z,4.72
2018-04-17T02:26:29.353Z,5.05
2018-04-17T02:28:58.480Z,5.55
2018-04-17T02:31:27.609Z,5.00
2018-04-17T02:33:56.752Z,5.32
2018-04-17T02:36:25.885Z,5.28
2018-04-17T02:38:55.021Z,6.20
2018-04-17T02:41:24.527Z,5.30
2018-04-17T02:43:54.421Z,4.93
2018-04-17T02:46:23.553Z,4.68
2018-04-17T02:48:52.694Z,6.25
2018-04-17T02:51:21.825Z,5.10
2018-04-17T02:53:50.941Z,6.22
2018-04-17T02:56:20.437Z,5.65
2018-04-17T02:58:49.553Z,4.68
2018-04-17T03:01:18.680Z,5.10
2018-04-17T03:03:48.128Z,5.62
2018-04-17T03:06:17.265Z,5.03
2018-04-17T03:08:46.402Z,5.40
2018-04-17T03:11:15.818Z,5.30
2018-04-17T03:13:44.946Z,4.50
2018-04-17T03:16:14.062Z,4.47
2018-04-17T03:18:43.471Z,5.10
2018-04-17T03:21:12.590Z,5.18
2018-04-17T03:23:41.703Z,5.03
2018-04-17T03:26:10.819Z,4.95
2018-04-17T03:28:40.037Z,5.00
2018-04-17T03:31:09.152Z,4.55
2018-04-17T03:33:39.521Z,4.03
2018-04-17T03:36:08.628Z,4.80
2018-04-17T03:38:37.837Z,5.15
2018-04-17T03:41:07.313Z,4.18
2018-04-17T03:43:36.413Z,3.97
2018-04-17T03:46:05.529Z,4.00
2018-04-17T03:48:35.015Z,4.80
2018-04-17T03:51:04.130Z,4.60
2018-04-17T03:53:33.254Z,3.80
2018-04-17T03:56:02.433Z,3.83
2018-04-17T03:58:31.545Z,4.30
2018-04-17T04:01:00.654Z,5.18
2018-04-17T04:03:30.097Z,3.95
2018-04-17T04:05:59.324Z,3.92
2018-04-17T04:08:29.123Z,4.20
2018-04-17T04:10:58.249Z,4.72
2018-04-17T04:13:27.405Z,4.45
2018-04-17T04:15:56.624Z,4.00
2018-04-17T04:18:32.062Z,4.20
2018-04-17T04:21:07.102Z,4.65
2018-04-17T04:23:42.317Z,5.03
2018-04-17T04:26:17.402Z,4.80
2018-04-17T04:28:47.187Z,4.45
2018-04-17T04:31:16.317Z,4.95
2018-04-17T04:33:45.425Z,5.10
2018-04-17T04:36:14.868Z,5.57
2018-04-17T04:38:43.965Z,5.85
2018-04-17T04:41:13.086Z,5.45
2018-04-17T04:43:42.499Z,5.55
2018-04-17T04:46:11.628Z,5.20
2018-04-17T04:48:40.764Z,5.70
2018-04-17T04:51:09.886Z,5.32
2018-04-17T04:53:39.005Z,5.43
2018-04-17T04:56:08.153Z,6.03
2018-04-17T04:58:37.558Z,5.62
2018-04-17T05:01:06.677Z,5.87
2018-04-17T05:03:35.785Z,6.82
2018-04-17T05:06:06.138Z,5.35
2018-04-17T05:08:35.538Z,6.05
2018-04-17T05:11:04.651Z,5.87
2018-04-17T05:13:33.773Z,5.60
2018-04-17T05:16:02.897Z,6.10
2018-04-17T05:18:32.068Z,6.30
2018-04-17T05:21:01.489Z,7.00
2018-04-17T05:23:30.605Z,5.43
2018-04-17T05:25:59.749Z,6.25
2018-04-17T05:28:29.228Z,7.47
2018-04-17T05:30:58.349Z,7.00
2018-04-17T05:33:27.494Z,7.12
2018-04-17T05:35:56.914Z,6.85
2018-04-17T05:38:26.023Z,6.47
2018-04-17T05:40:55.241Z,6.60
2018-04-17T05:43:24.680Z,6.62
2018-04-17T05:45:53.802Z,5.55
2018-04-17T05:48:22.925Z,5.78
2018-04-17T05:50:52.075Z,6.10
2018-04-17T05:53:21.177Z,6.15
2018-04-17T05:55:50.375Z,5.00
2018-04-17T05:58:19.791Z,6.25
2018-04-17T06:00:48.920Z,6.15
2018-04-17T06:03:18.043Z,5.10
2018-04-17T06:05:47.637Z,4.60
2018-04-17T06:08:16.771Z,6.25
2018-04-17T06:10:45.905Z,5.50
2018-04-17T06:13:15.418Z,6.15
2018-04-17T06:15:44.544Z,5.40
2018-04-17T06:18:13.669Z,6.12
2018-04-17T06:20:43.077Z,6.30
2018-04-17T06:23:12.182Z,6.97
2018-04-17T06:25:41.295Z,6.43
2018-04-17T06:28:10.430Z,6.18
2018-04-17T06:30:40.170Z,5.75
2018-04-17T06:33:09.301Z,6.12
2018-04-17T06:35:38.686Z,6.60
2018-04-17T06:38:07.830Z,7.32
2018-04-17T06:40:36.961Z,6.60
2018-04-17T06:43:06.381Z,5.87
2018-04-17T06:45:35.513Z,6.75
2018-04-17T06:48:04.626Z,6.07
2018-04-17T06:50:34.060Z,8.07
2018-04-17T06:53:03.195Z,6.45
2018-04-17T06:55:32.314Z,6.87
2018-04-17T06:58:01.710Z,6.40
2018-04-17T07:00:30.825Z,6.80
2018-04-17T07:02:59.946Z,6.82
2018-04-17T07:05:29.446Z,6.30
2018-04-17T07:07:58.558Z,5.55
2018-04-17T07:10:27.674Z,6.70
2018-04-17T07:12:56.845Z,7.28
2018-04-17T07:15:25.988Z,7.12
2018-04-17T07:17:55.198Z,6.18
2018-04-17T07:20:24.649Z,6.60
2018-04-17T07:22:54.537Z,7.00
2018-04-17T07:25:24.705Z,7.50
2018-04-17T07:27:53.840Z,7.12
2018-04-17T07:30:22.972Z,7.43
2018-04-17T07:32:52.391Z,7.30
2018-04-17T07:35:21.521Z,7.90
2018-04-17T07:37:50.657Z,7.22
2018-04-17T07:40:19.832Z,8.38
2018-04-17T07:42:48.981Z,6.65
2018-04-17T07:45:18.097Z,7.12
2018-04-17T07:47:53.597Z,8.43
2018-04-17T07:50:23.385Z,7.82
2018-04-17T07:52:52.536Z,8.18
2018-04-17T07:55:21.697Z,7.78
2018-04-17T07:57:50.816Z,8.38
2018-04-17T08:00:19.945Z,8.40
2018-04-17T08:02:49.086Z,9.18
2018-04-17T08:05:19.105Z,8.90
2018-04-17T08:07:49.685Z,5.70
2018-04-17T08:10:19.102Z,8.23
2018-04-17T08:12:48.241Z,9.50
2018-04-17T08:15:17.357Z,9.20
2018-04-17T08:17:46.861Z,8.55
2018-04-17T08:20:15.997Z,8.67
2018-04-17T08:22:45.154Z,9.40
2018-04-17T08:25:14.621Z,8.40
2018-04-17T08:27:43.740Z,8.63
2018-04-17T08:30:12.878Z,7.90
2018-04-17T08:32:42.313Z,9.97
2018-04-17T08:35:11.941Z,7.00
2018-04-17T08:37:41.081Z,7.60
2018-04-17T08:40:10.506Z,7.90
2018-04-17T08:42:39.754Z,8.77
2018-04-17T08:45:08.879Z,7.87
2018-04-17T08:47:38.334Z,7.80
2018-04-17T08:50:07.553Z,6.20
2018-04-17T08:52:36.681Z,7.57
2018-04-17T08:55:06.115Z,7.50
2018-04-17T08:57:35.239Z,6.70
2018-04-17T09:00:04.354Z,6.50
2018-04-17T09:02:33.506Z,6.90
2018-04-17T09:05:02.713Z,7.60
2018-04-17T09:07:31.863Z,6.70
2018-04-17T09:10:01.269Z,7.00
2018-04-17T09:12:30.421Z,5.60
2018-04-17T09:14:59.547Z,5.93
2018-04-17T09:17:28.693Z,6.37
2018-04-17T09:19:57.846Z,5.63
2018-04-17T09:22:26.993Z,6.07
2018-04-17T09:24:56.140Z,5.60
2018-04-17T09:27:25.265Z,5.60
2018-04-17T09:29:55.062Z,4.83
2018-04-17T09:32:24.190Z,5.37
2018-04-17T09:34:53.408Z,5.60
2018-04-17T09:37:22.526Z,5.00
2018-04-17T09:39:51.927Z,4.87
2018-04-17T09:42:21.057Z,4.77
2018-04-17T09:44:50.170Z,5.50
2018-04-17T09:47:19.665Z,4.07
2018-04-17T09:49:48.786Z,4.00
2018-04-17T09:52:17.945Z,4.07
2018-04-17T09:54:47.466Z,4.63
2018-04-17T09:57:16.578Z,6.40
2018-04-17T09:59:45.729Z,4.80
2018-04-17T10:02:14.868Z,4.27
2018-04-17T10:04:43.995Z,4.50
2018-04-17T10:07:13.125Z,4.37
2018-04-17T10:09:43.486Z,4.70
2018-04-17T10:12:12.703Z,4.20
2018-04-17T10:14:42.626Z,4.20
2018-04-17T10:17:11.823Z,3.83
2018-04-17T10:19:40.921Z,4.10
2018-04-17T10:22:10.037Z,3.93
2018-04-17T10:24:39.570Z,4.10
2018-04-17T10:27:08.702Z,3.93
2018-04-17T10:29:37.837Z,4.30
2018-04-17T10:32:06.969Z,3.63
2018-04-17T10:34:36.192Z,4.63
2018-04-17T10:37:05.309Z,4.03
2018-04-17T10:39:35.577Z,5.50
2018-04-17T10:42:04.694Z,5.47
2018-04-17T10:44:33.915Z,5.03
2018-04-17T10:47:03.372Z,6.00
2018-04-17T10:49:32.539Z,5.00
2018-04-17T10:52:01.698Z,5.20
2018-04-17T10:54:31.166Z,6.17
2018-04-17T10:57:00.400Z,4.93
2018-04-17T10:59:29.513Z,5.27
2018-04-17T11:01:58.960Z,5.57
2018-04-17T11:04:28.098Z,5.90
2018-04-17T11:06:57.241Z,5.53
2018-04-17T11:09:26.783Z,6.10
2018-04-17T11:11:55.925Z,6.20
2018-04-17T11:14:25.037Z,6.50
2018-04-17T11:16:54.194Z,5.90
2018-04-17T11:19:23.324Z,6.10
2018-04-17T11:21:52.497Z,3.90
2018-04-17T11:24:21.926Z,3.70
2018-04-17T11:26:51.047Z,3.70
2018-04-17T11:29:20.170Z,4.20
2018-04-17T11:31:49.669Z,4.00
2018-04-17T11:34:18.801Z,4.13
2018-04-17T11:36:47.919Z,4.10
2018-04-17T11:39:17.097Z,4.67
2018-04-17T11:41:46.246Z,3.33
2018-04-17T11:44:15.399Z,3.80
2018-04-17T11:46:44.841Z,3.30
2018-04-17T11:49:13.965Z,4.70
2018-04-17T11:51:43.125Z,4.70
2018-04-17T11:54:12.651Z,4.20
2018-04-17T11:56:41.790Z,4.90
2018-04-17T11:59:10.912Z,4.77
2018-04-17T12:01:40.099Z,4.80
2018-04-17T12:04:09.209Z,5.07
2018-04-17T12:06:38.367Z,5.17
2018-04-17T12:09:07.808Z,4.60
2018-04-17T12:11:37.037Z,6.03
2018-04-17T12:14:06.175Z,5.63
2018-04-17T12:16:35.570Z,4.80
2018-04-17T12:19:04.713Z,4.87
2018-04-17T12:21:33.833Z,5.10
2018-04-17T12:24:03.297Z,5.43
2018-04-17T12:26:32.410Z,5.37
2018-04-17T12:29:01.550Z,5.00
2018-04-17T12:31:31.231Z,5.00
2018-04-17T12:34:00.439Z,4.80
2018-04-17T12:36:29.583Z,4.70
2018-04-17T12:38:59.093Z,4.70
2018-04-17T12:41:28.249Z,4.73
2018-04-17T12:43:57.402Z,5.20
2018-04-17T12:46:26.785Z,5.50
2018-04-17T12:48:55.963Z,4.80
2018-04-17T12:51:25.087Z,5.07
2018-04-17T12:53:54.245Z,5.07
2018-04-17T12:56:23.382Z,4.97
2018-04-17T12:58:53.321Z,4.93
2018-04-17T13:01:22.485Z,5.53
2018-04-17T13:03:51.615Z,5.00
2018-04-17T13:06:20.746Z,4.37
2018-04-17T13:08:50.208Z,6.97
2018-04-17T13:11:19.317Z,5.17
2018-04-17T13:13:48.452Z,4.70
2018-04-17T13:16:17.934Z,5.40
2018-04-17T13:18:47.091Z,5.53
2018-04-17T13:21:16.229Z,5.97
2018-04-17T13:23:45.374Z,4.90
2018-04-17T13:26:14.516Z,4.93
2018-04-17T13:28:43.643Z,5.40
2018-04-17T13:31:13.157Z,5.30
2018-04-17T13:33:42.278Z,5.87
2018-04-17T13:36:11.402Z,6.13
2018-04-17T13:38:40.832Z,5.23
2018-04-17T13:41:09.953Z,5.13
2018-04-17T13:43:39.179Z,6.13
2018-04-17T13:46:08.301Z,5.40
2018-04-17T13:48:37.449Z,4.77
2018-04-17T13:51:06.585Z,5.60
2018-04-17T13:53:36.141Z,5.80
2018-04-17T13:56:05.267Z,5.47
2018-04-17T13:58:34.401Z,6.10
2018-04-17T14:01:03.528Z,5.50
2018-04-17T14:03:32.672Z,4.70
2018-04-17T14:06:01.807Z,5.43
2018-04-17T14:08:30.940Z,5.30
2018-04-17T14:11:00.064Z,4.70
2018-04-17T14:13:29.197Z,5.63
2018-04-17T14:15:58.349Z,5.00
2018-04-17T14:18:27.463Z,4.67
2018-04-17T14:20:56.610Z,4.87
2018-04-17T14:23:26.089Z,5.60
2018-04-17T14:25:55.217Z,5.60
2018-04-17T14:28:24.338Z,5.10
2018-04-17T14:30:53.807Z,6.20
2018-04-17T14:33:22.933Z,5.17
2018-04-17T14:35:52.050Z,4.87
2018-04-17T14:38:21.200Z,5.53
2018-04-17T14:40:50.337Z,6.20
2018-04-17T14:43:19.580Z,5.83
2018-04-17T14:45:49.016Z,5.20
2018-04-17T14:48:18.188Z,5.03
2018-04-17T14:50:47.402Z,5.20
2018-04-17T14:53:16.876Z,5.97
2018-04-17T14:55:46.007Z,5.87
2018-04-17T14:58:15.198Z,4.83
2018-04-17T15:00:44.383Z,5.70
2018-04-17T15:03:13.490Z,4.53
2018-04-17T15:05:42.620Z,5.47
2018-04-17T15:08:12.090Z,5.60
2018-04-17T15:10:41.234Z,5.17
2018-04-17T15:13:10.353Z,5.95
2018-04-17T15:15:39.773Z,5.63
2018-04-17T15:18:08.986Z,6.00
2018-04-17T15:20:38.101Z,6.20
2018-04-17T15:23:07.646Z,6.40
2018-04-17T15:25:36.759Z,5.23
2018-04-17T15:28:05.886Z,6.17
2018-04-17T15:30:35.042Z,5.97
2018-04-17T15:33:04.165Z,6.83
2018-04-17T15:35:33.283Z,6.43
2018-04-17T15:38:02.737Z,6.70
2018-04-17T15:40:31.862Z,6.87
2018-04-17T15:43:00.977Z,7.60
2018-04-17T15:45:30.129Z,8.77
2018-04-17T15:47:59.281Z,7.30
2018-04-17T15:50:28.414Z,6.83
2018-04-17T15:52:57.596Z,6.97
2018-04-17T15:55:26.719Z,6.87
2018-04-17T15:57:55.840Z,6.13
2018-04-17T16:00:25.298Z,6.77
2018-04-17T16:02:54.423Z,5.90
2018-04-17T16:05:23.626Z,6.23
2018-04-17T16:07:53.146Z,6.13
2018-04-17T16:10:22.311Z,6.13
2018-04-17T16:12:51.429Z,5.40
2018-04-17T16:15:20.888Z,5.77
2018-04-17T16:17:50.085Z,5.37
2018-04-17T16:20:19.199Z,4.73
2018-04-17T16:22:48.701Z,4.60
2018-04-17T16:25:17.912Z,5.27
2018-04-17T16:27:47.041Z,4.60
2018-04-17T16:30:16.165Z,3.83
2018-04-17T16:32:45.294Z,4.73
2018-04-17T16:35:14.480Z,7.13
2018-04-17T16:37:43.618Z,11.83
2018-04-17T16:40:12.736Z,9.20
2018-04-17T16:42:41.898Z,4.33
2018-04-17T16:45:11.070Z,4.30
2018-04-17T16:47:40.198Z,3.47
2018-04-17T16:50:09.333Z,3.30
2018-04-17T16:52:38.833Z,3.93
2018-04-17T16:55:07.968Z,4.10
2018-04-17T16:57:37.104Z,4.23
2018-04-17T17:00:06.247Z,4.00
2018-04-17T17:02:35.447Z,3.90
2018-04-17T17:05:04.586Z,3.60
2018-04-17T17:07:34.190Z,4.57
2018-04-17T17:10:03.307Z,4.30
2018-04-17T17:12:32.425Z,3.67
2018-04-17T17:15:01.562Z,3.60
2018-04-17T17:17:30.688Z,3.17
2018-04-17T17:19:59.821Z,4.73
2018-04-17T17:22:29.397Z,2.90
2018-04-17T17:24:58.554Z,3.77
2018-04-17T17:27:27.685Z,3.13
2018-04-17T17:29:56.843Z,3.40
2018-04-17T17:32:26.048Z,3.57
2018-04-17T17:34:55.121Z,3.30
2018-04-17T17:37:24.601Z,3.20
2018-04-17T17:39:53.777Z,3.50
2018-04-17T17:42:22.893Z,3.80
2018-04-17T17:44:52.026Z,3.43
2018-04-17T17:47:23.928Z,3.10
2018-04-17T17:49:53.059Z,3.33
2018-04-17T17:52:22.183Z,3.80
2018-04-17T17:54:51.303Z,4.20
2018-04-17T17:57:21.541Z,3.47
2018-04-17T17:59:50.613Z,3.97
2018-04-17T18:02:19.789Z,3.47
2018-04-17T18:04:49.555Z,3.10
2018-04-17T18:07:18.665Z,3.40
2018-04-17T18:09:47.790Z,3.90
2018-04-17T18:12:16.944Z,3.90
2018-04-17T18:14:46.151Z,3.83
2018-04-17T18:17:15.388Z,3.63
2018-04-17T18:19:44.904Z,4.13
2018-04-17T18:22:13.980Z,3.13
2018-04-17T18:24:43.101Z,3.73
2018-04-17T18:27:12.242Z,3.87
2018-04-17T18:29:41.367Z,4.40
2018-04-17T18:32:10.490Z,3.63
2018-04-17T18:34:39.989Z,3.73
2018-04-17T18:37:09.102Z,3.77
2018-04-17T18:39:38.225Z,3.43
2018-04-17T18:42:07.403Z,3.70
2018-04-17T18:44:36.536Z,4.20
2018-04-17T18:47:05.748Z,4.00
2018-04-17T18:49:35.221Z,4.03
2018-04-17T18:52:04.332Z,3.77
2018-04-17T18:54:33.492Z,3.70
2018-04-17T18:57:03.007Z,3.80
2018-04-17T18:59:32.130Z,4.20
2018-04-17T19:02:01.264Z,4.00
2018-04-17T19:04:30.393Z,4.07
2018-04-17T19:06:59.510Z,4.27
2018-04-17T19:09:28.626Z,5.10
2018-04-17T19:11:58.038Z,4.43
2018-04-17T19:14:27.145Z,4.20
2018-04-17T19:16:56.272Z,5.00
2018-04-17T19:19:25.436Z,4.67
2018-04-17T19:21:54.601Z,4.60
2018-04-17T19:24:23.725Z,4.40
2018-04-17T19:26:53.177Z,5.33
2018-04-17T19:29:22.410Z,5.10
2018-04-17T19:31:51.588Z,5.00
2018-04-17T19:34:21.098Z,5.37
2018-04-17T19:36:50.225Z,5.40
2018-04-17T19:39:19.362Z,5.27
2018-04-17T19:41:48.974Z,5.03
2018-04-17T19:44:18.099Z,5.33
2018-04-17T19:46:47.406Z,5.70
2018-04-17T19:49:16.541Z,4.73
2018-04-17T19:51:45.661Z,4.47
2018-04-17T19:54:14.895Z,5.60
2018-04-17T19:56:44.355Z,5.40
2018-04-17T19:59:13.494Z,5.90
2018-04-17T20:01:42.881Z,5.50
2018-04-17T20:04:12.370Z,5.20
2018-04-17T20:06:41.495Z,6.40
2018-04-17T20:09:10.611Z,5.60
2018-04-17T20:11:39.793Z,6.53
2018-04-17T20:14:08.918Z,6.67
2018-04-17T20:16:38.717Z,6.40
2018-04-17T20:19:07.853Z,6.43
2018-04-17T20:21:36.993Z,6.20
2018-04-17T20:24:06.138Z,7.20
2018-04-17T20:26:35.537Z,6.50
2018-04-17T20:29:04.664Z,5.87
2018-04-17T20:31:34.697Z,7.03
2018-04-17T20:34:04.173Z,6.40
2018-04-17T20:36:33.298Z,6.20
2018-04-17T20:39:02.423Z,6.23
2018-04-17T20:41:31.825Z,6.63
2018-04-17T20:44:00.957Z,5.20
2018-04-17T20:46:30.092Z,6.87
2018-04-17T20:48:59.554Z,6.57
2018-04-17T20:51:28.732Z,6.37
2018-04-17T20:53:58.190Z,5.87
2018-04-17T20:56:27.662Z,7.03
2018-04-17T20:58:56.794Z,7.10
2018-04-17T21:01:25.918Z,6.30
2018-04-17T21:03:55.046Z,7.00
2018-04-17T21:06:24.157Z,7.27
2018-04-17T21:08:53.294Z,6.60
2018-04-17T21:11:22.691Z,6.10
2018-04-17T21:13:51.822Z,6.37
2018-04-17T21:16:20.997Z,6.53
2018-04-17T21:18:51.175Z,6.17
2018-04-17T21:21:20.302Z,7.23
2018-04-17T21:23:49.456Z,6.20
2018-04-17T21:26:18.950Z,7.03
2018-04-17T21:28:48.182Z,6.77
2018-04-17T21:31:17.300Z,7.63
2018-04-17T21:33:46.713Z,7.23
2018-04-17T21:36:15.941Z,7.20
2018-04-17T21:38:45.082Z,7.67
2018-04-17T21:41:14.535Z,6.97
2018-04-17T21:43:43.793Z,7.78
2018-04-17T21:46:12.910Z,8.10
2018-04-17T21:48:42.054Z,7.67
2018-04-17T21:51:11.169Z,7.93
2018-04-17T21:53:40.297Z,8.13
2018-04-17T21:56:09.727Z,8.40
2018-04-17T21:58:39.695Z,9.10
2018-04-17T22:01:08.845Z,8.97
2018-04-17T22:03:38.071Z,9.60
2018-04-17T22:06:07.186Z,8.83
2018-04-17T22:08:36.323Z,8.98
2018-04-17T22:11:05.451Z,9.95
2018-04-17T22:13:35.000Z,9.95
2018-04-17T22:16:04.466Z,10.10
2018-04-17T22:18:33.617Z,10.38
2018-04-17T22:21:02.758Z,11.10
2018-04-17T22:23:32.226Z,10.27
2018-04-17T22:26:01.357Z,10.73
2018-04-17T22:28:30.490Z,9.57
2018-04-17T22:31:00.021Z,11.00
2018-04-17T22:33:29.256Z,10.35
2018-04-17T22:35:58.382Z,10.25
2018-04-17T22:38:27.511Z,9.63
2018-04-17T22:40:56.643Z,11.20
2018-04-17T22:43:25.793Z,11.27
2018-04-17T22:45:55.205Z,10.35
2018-04-17T22:48:24.339Z,9.30
2018-04-17T22:50:53.466Z,10.43
2018-04-17T22:53:22.900Z,9.77
2018-04-17T22:55:52.021Z,9.55
2018-04-17T22:58:21.141Z,9.60
2018-04-17T23:00:50.632Z,10.45
2018-04-17T23:03:19.752Z,9.45
2018-04-17T23:05:48.887Z,9.77
2018-04-17T23:08:18.357Z,9.57
2018-04-17T23:10:47.497Z,10.18
2018-04-17T23:13:16.621Z,8.93
2018-04-17T23:15:46.191Z,10.25
2018-04-17T23:18:15.515Z,9.80
2018-04-17T23:20:44.724Z,9.65
2018-04-17T23:23:14.185Z,9.48
2018-04-17T23:25:43.314Z,8.50
2018-04-17T23:28:12.440Z,9.18
2018-04-17T23:30:41.592Z,8.05
2018-04-17T23:33:10.732Z,9.50
2018-04-17T23:35:39.876Z,8.55
2018-04-17T23:38:09.174Z,8.80
2018-04-17T23:40:38.405Z,8.63
2018-04-17T23:43:07.549Z,8.63
2018-04-17T23:45:36.682Z,8.30
2018-04-17T23:48:05.814Z,8.82
2018-04-17T23:50:34.957Z,9.55
2018-04-17T23:53:04.117Z,8.23
2018-04-17T23:55:33.245Z,8.45
2018-04-17T23:58:02.909Z,8.55
